createdAt,value
2022-10-02T00:02:21.394Z,11.04
2022-10-02T00:07:32.018Z,11.15
2022-10-02T00:12:36.914Z,11.09
2022-10-02T00:17:44.834Z,11.27
2022-10-02T00:22:54.589Z,11.23
2022-10-02T00:28:13.890Z,11.16
2022-10-02T00:33:28.476Z,11.15
2022-10-02T00:38:45.648Z,11.23
2022-10-02T00:44:01.197Z,11.14
2022-10-02T00:49:33.710Z,11.22
2022-10-02T00:55:04.296Z,11.22
2022-10-02T01:00:12.432Z,11.17
2022-10-02T01:05:15.433Z,11.06
2022-10-02T01:10:22.309Z,10.91
2022-10-02T01:15:31.307Z,11.01
2022-10-02T01:20:38.784Z,11.16
2022-10-02T01:25:43.207Z,11.16
2022-10-02T01:30:50.432Z,11.06
2022-10-02T01:35:53.661Z,11.24
2022-10-02T01:40:57.807Z,11.37
2022-10-02T01:46:22.107Z,11.48
2022-10-02T01:51:49.044Z,11.48
2022-10-02T01:57:03.456Z,11.39
2022-10-02T02:02:16.380Z,11.23
2022-10-02T02:07:27.077Z,11.37
2022-10-02T02:12:39.330Z,11.37
2022-10-02T02:17:49.327Z,11.23
2022-10-02T02:22:55.838Z,11.42
2022-10-02T02:28:04.478Z,11.58
2022-10-02T02:33:12.429Z,11.51
2022-10-02T02:38:23.112Z,11.40
2022-10-02T02:43:32.917Z,11.38
2022-10-02T02:48:43.749Z,11.15
2022-10-02T02:53:52.422Z,11.09
2022-10-02T02:59:01.915Z,11.06
2022-10-02T03:04:05.105Z,11.16
2022-10-02T03:09:12.509Z,11.14
2022-10-02T03:14:45.693Z,11.32
2022-10-02T03:19:53.822Z,11.34
2022-10-02T03:25:04.215Z,11.18
2022-10-02T03:30:11.240Z,11.15
2022-10-02T03:35:15.044Z,11.09
2022-10-02T03:40:17.892Z,11.14
2022-10-02T03:45:46.173Z,10.99
2022-10-02T03:50:45.130Z,10.92
2022-10-02T03:55:51.500Z,10.80
2022-10-02T04:01:00.597Z,10.69
2022-10-02T04:06:07.045Z,10.60
2022-10-02T04:11:16.671Z,10.57
2022-10-02T04:16:28.716Z,10.56
2022-10-02T04:21:39.018Z,10.50
2022-10-02T04:26:47.255Z,10.53
2022-10-02T04:31:55.201Z,10.51
2022-10-02T04:37:12.233Z,10.53
2022-10-02T04:42:25.654Z,10.44
2022-10-02T04:47:47.338Z,10.33
2022-10-02T04:53:12.103Z,10.54
2022-10-02T04:58:30.935Z,10.53
2022-10-02T05:03:41.071Z,10.54
2022-10-02T05:09:08.264Z,10.68
2022-10-02T05:14:27.347Z,10.65
2022-10-02T05:19:43.691Z,10.63
2022-10-02T05:25:00.113Z,10.50
2022-10-02T05:30:08.334Z,10.38
2022-10-02T05:35:30.328Z,10.42
2022-10-02T05:40:37.589Z,10.49
2022-10-02T05:45:41.813Z,10.60
2022-10-02T05:50:50.294Z,10.68
2022-10-02T05:55:55.709Z,10.90
2022-10-02T06:01:06.260Z,11.11
2022-10-02T06:06:17.606Z,11.33
2022-10-02T06:11:27.673Z,11.42
2022-10-02T06:16:37.593Z,11.35
2022-10-02T06:21:47.382Z,11.41
2022-10-02T06:26:56.876Z,11.42
2022-10-02T06:32:14.508Z,11.34
2022-10-02T06:37:41.229Z,11.31
2022-10-02T06:42:53.200Z,11.49
2022-10-02T06:48:05.382Z,11.86
2022-10-02T06:53:22.099Z,11.94
2022-10-02T06:58:36.279Z,11.86
2022-10-02T07:04:00.483Z,12.02
2022-10-02T07:09:27.109Z,12.30
2022-10-02T07:14:51.086Z,13.21
2022-10-02T07:20:11.596Z,14.52
2022-10-02T07:25:43.507Z,15.08
2022-10-02T07:30:57.463Z,14.91
2022-10-02T07:36:07.456Z,13.91
2022-10-02T07:41:23.128Z,13.46
2022-10-02T07:46:38.651Z,12.77
2022-10-02T07:51:50.759Z,12.59
2022-10-02T07:57:00.098Z,12.76
2022-10-02T08:02:08.775Z,12.95
2022-10-02T08:07:13.923Z,12.74
2022-10-02T08:12:28.803Z,12.60
2022-10-02T08:17:36.894Z,13.24
2022-10-02T08:22:43.823Z,14.03
2022-10-02T08:27:54.317Z,14.77
2022-10-02T08:32:57.744Z,14.83
2022-10-02T08:38:17.185Z,14.61
2022-10-02T08:44:20.281Z,14.00
2022-10-02T08:50:07.518Z,13.70
2022-10-02T08:55:32.851Z,13.47
2022-10-02T09:00:46.821Z,13.84
2022-10-02T09:06:15.574Z,14.00
2022-10-02T09:11:44.943Z,14.18
2022-10-02T09:17:30.642Z,13.92
2022-10-02T09:23:07.722Z,13.99
2022-10-02T09:29:03.847Z,13.81
2022-10-02T09:34:48.021Z,13.58
2022-10-02T09:40:32.927Z,13.80
2022-10-02T09:46:07.735Z,14.10
2022-10-02T09:51:44.054Z,14.02
2022-10-02T09:57:18.516Z,13.79
2022-10-02T10:03:02.768Z,13.66
2022-10-02T10:08:46.972Z,13.72
2022-10-02T10:14:24.501Z,13.99
2022-10-02T10:20:03.011Z,14.26
2022-10-02T10:25:23.646Z,14.22
2022-10-02T10:30:54.250Z,14.41
2022-10-02T10:36:33.733Z,14.56
2022-10-02T10:42:12.842Z,14.70
2022-10-02T10:47:38.602Z,14.84
2022-10-02T10:53:08.281Z,14.93
2022-10-02T10:58:21.213Z,14.79
2022-10-02T11:04:08.737Z,15.03
2022-10-02T11:09:53.693Z,15.56
2022-10-02T11:15:17.510Z,15.83
2022-10-02T11:20:32.762Z,15.95
2022-10-02T11:25:59.862Z,15.82
2022-10-02T11:31:22.955Z,15.86
2022-10-02T11:36:47.574Z,15.74
2022-10-02T11:42:21.057Z,15.43
2022-10-02T11:47:56.611Z,16.00
2022-10-02T11:53:23.330Z,15.69
2022-10-02T11:58:45.271Z,15.22
2022-10-02T12:03:58.654Z,15.53
2022-10-02T12:09:09.908Z,15.51
2022-10-02T12:14:26.518Z,15.18
2022-10-02T12:20:03.912Z,14.80
2022-10-02T12:25:42.771Z,14.42
2022-10-02T12:30:54.126Z,14.41
2022-10-02T12:36:24.453Z,14.33
2022-10-02T12:41:46.858Z,14.21
2022-10-02T12:47:14.853Z,14.52
2022-10-02T12:53:04.327Z,14.71
2022-10-02T12:58:11.289Z,14.93
2022-10-02T13:03:48.870Z,15.45
2022-10-02T13:09:16.740Z,16.22
2022-10-02T13:14:41.903Z,16.59
2022-10-02T13:19:57.273Z,16.67
2022-10-02T13:25:24.062Z,16.36
2022-10-02T13:30:35.681Z,15.80
2022-10-02T13:36:04.541Z,16.07
2022-10-02T13:41:13.179Z,15.89
2022-10-02T13:46:27.056Z,15.81
2022-10-02T13:51:38.344Z,15.69
2022-10-02T13:56:51.314Z,15.63
2022-10-02T14:02:07.849Z,15.50
2022-10-02T14:07:27.748Z,15.57
2022-10-02T14:12:39.305Z,15.79
2022-10-02T14:17:55.272Z,15.78
2022-10-02T14:23:14.889Z,15.64
2022-10-02T14:28:33.626Z,15.58
2022-10-02T14:33:58.012Z,15.61
2022-10-02T14:39:13.329Z,15.50
2022-10-02T14:44:30.632Z,15.43
2022-10-02T14:50:13.646Z,15.41
2022-10-02T14:55:28.175Z,15.41
2022-10-02T15:00:37.004Z,15.32
2022-10-02T15:05:55.822Z,15.28
2022-10-02T15:11:01.608Z,15.24
2022-10-02T15:16:32.780Z,15.10
2022-10-02T15:21:43.779Z,15.18
2022-10-02T15:26:51.488Z,15.27
2022-10-02T15:32:28.316Z,15.31
2022-10-02T15:37:41.213Z,15.42
2022-10-02T15:42:54.026Z,15.45
2022-10-02T15:48:13.632Z,15.26
2022-10-02T15:53:33.560Z,15.17
2022-10-02T15:59:02.938Z,14.91
2022-10-02T16:04:15.328Z,14.77
2022-10-02T16:09:40.305Z,14.58
2022-10-02T16:14:59.096Z,14.49
2022-10-02T16:20:27.000Z,14.38
2022-10-02T16:25:45.544Z,14.25
2022-10-02T16:31:12.926Z,14.08
2022-10-02T16:36:30.249Z,13.87
2022-10-02T16:41:38.607Z,13.74
2022-10-02T16:46:45.989Z,13.72
2022-10-02T16:51:58.233Z,13.66
2022-10-02T16:57:07.865Z,13.77
2022-10-02T17:02:20.075Z,13.51
2022-10-02T17:07:32.958Z,13.39
2022-10-02T17:12:46.360Z,13.31
2022-10-02T17:18:05.373Z,13.20
2022-10-02T17:23:17.812Z,13.17
2022-10-02T17:28:26.822Z,13.05
2022-10-02T17:33:45.101Z,12.94
2022-10-02T17:39:04.455Z,12.92
2022-10-02T17:44:17.327Z,12.76
2022-10-02T17:49:32.273Z,12.89
2022-10-02T17:55:10.875Z,12.75
2022-10-02T18:00:21.279Z,12.64
2022-10-02T18:05:33.827Z,12.62
2022-10-02T18:10:47.651Z,12.57
2022-10-02T18:16:22.204Z,12.53
2022-10-02T18:21:38.882Z,12.43
2022-10-02T18:27:07.096Z,12.34
2022-10-02T18:32:26.880Z,12.25
2022-10-02T18:37:54.771Z,12.21
2022-10-02T18:43:13.545Z,12.17
2022-10-02T18:48:38.543Z,12.16
2022-10-02T18:53:55.439Z,12.18
2022-10-02T18:59:12.719Z,12.14
2022-10-02T19:04:37.189Z,12.14
2022-10-02T19:09:42.385Z,12.17
2022-10-02T19:14:46.901Z,12.12
2022-10-02T19:19:49.651Z,12.18
2022-10-02T19:24:58.015Z,12.46
2022-10-02T19:30:01.328Z,12.50
2022-10-02T19:35:12.174Z,12.70
2022-10-02T19:40:19.168Z,12.89
2022-10-02T19:45:26.581Z,12.92
2022-10-02T19:50:40.955Z,12.69
2022-10-02T19:55:47.323Z,12.49
2022-10-02T20:00:52.450Z,12.37
2022-10-02T20:06:00.868Z,12.26
2022-10-02T20:11:08.188Z,12.26
2022-10-02T20:16:35.574Z,12.22
2022-10-02T20:21:41.244Z,12.36
2022-10-02T20:26:47.688Z,12.44
2022-10-02T20:31:54.206Z,12.24
2022-10-02T20:37:02.444Z,12.05
2022-10-02T20:42:13.417Z,12.00
2022-10-02T20:47:51.512Z,11.89
2022-10-02T20:53:38.925Z,11.83
2022-10-02T20:59:19.886Z,11.77
2022-10-02T21:04:55.483Z,11.70
2022-10-02T21:10:50.998Z,11.69
2022-10-02T21:16:21.479Z,11.62
2022-10-02T21:21:53.967Z,11.63
2022-10-02T21:27:27.684Z,11.69
2022-10-02T21:32:56.489Z,11.69
2022-10-02T21:38:22.198Z,11.76
2022-10-02T21:44:11.282Z,11.72
2022-10-02T21:49:42.972Z,11.73
2022-10-02T21:55:26.604Z,11.70
2022-10-02T22:00:31.159Z,11.71
2022-10-02T22:06:08.259Z,11.71
2022-10-02T22:11:23.989Z,11.77
2022-10-02T22:16:40.274Z,11.60
2022-10-02T22:22:01.779Z,11.52
2022-10-02T22:27:22.967Z,11.50
2022-10-02T22:33:06.488Z,11.47
2022-10-02T22:38:21.865Z,11.59
2022-10-02T22:43:31.850Z,11.43
2022-10-02T22:48:38.751Z,11.35
2022-10-02T22:53:49.215Z,11.28
2022-10-02T22:58:59.846Z,11.16
2022-10-02T23:04:08.972Z,11.11
2022-10-02T23:09:19.378Z,11.06
2022-10-02T23:14:29.890Z,11.05
2022-10-02T23:19:42.972Z,11.06
2022-10-02T23:24:52.409Z,11.07
2022-10-02T23:30:00.290Z,11.09
2022-10-02T23:35:12.773Z,11.21
2022-10-02T23:40:45.685Z,11.15
2022-10-02T23:45:55.978Z,11.16
2022-10-02T23:51:15.546Z,11.09
2022-10-02T23:56:43.042Z,11.03
